sensor_id;sensor_type;location;lat;lon;timestamp;P1;durP1;ratioP1;P2;durP2;ratioP2
20725;SDS011;10524;48.132;8.518;2023-12-20T00:01:25;1.08;;;0.93;;
20725;SDS011;10524;48.132;8.518;2023-12-20T00:03:50;1.35;;;1.25;;
20725;SDS011;10524;48.132;8.518;2023-12-20T00:06:16;1.17;;;1.05;;
20725;SDS011;10524;48.132;8.518;2023-12-20T00:08:42;1.80;;;1.40;;
20725;SDS011;10524;48.132;8.518;2023-12-20T00:11:09;1.98;;;1.50;;
20725;SDS011;10524;48.132;8.518;2023-12-20T00:13:34;2.00;;;1.60;;
20725;SDS011;10524;48.132;8.518;2023-12-20T00:16:00;2.92;;;2.22;;
20725;SDS011;10524;48.132;8.518;2023-12-20T00:18:26;2.83;;;2.30;;
20725;SDS011;10524;48.132;8.518;2023-12-20T00:20:51;3.13;;;2.22;;
20725;SDS011;10524;48.132;8.518;2023-12-20T00:23:17;3.00;;;2.10;;
20725;SDS011;10524;48.132;8.518;2023-12-20T00:25:43;2.65;;;2.25;;
20725;SDS011;10524;48.132;8.518;2023-12-20T00:28:09;2.55;;;2.10;;
20725;SDS011;10524;48.132;8.518;2023-12-20T00:30:34;2.83;;;2.20;;
20725;SDS011;10524;48.132;8.518;2023-12-20T00:33:01;2.50;;;2.15;;
20725;SDS011;10524;48.132;8.518;2023-12-20T00:35:27;2.65;;;2.20;;
20725;SDS011;10524;48.132;8.518;2023-12-20T00:37:53;2.78;;;2.08;;
20725;SDS011;10524;48.132;8.518;2023-12-20T00:40:19;2.63;;;2.08;;
20725;SDS011;10524;48.132;8.518;2023-12-20T00:42:45;2.63;;;2.05;;
20725;SDS011;10524;48.132;8.518;2023-12-20T00:45:12;3.03;;;2.30;;
20725;SDS011;10524;48.132;8.518;2023-12-20T00:47:38;2.30;;;2.10;;
20725;SDS011;10524;48.132;8.518;2023-12-20T00:50:04;2.65;;;2.25;;
20725;SDS011;10524;48.132;8.518;2023-12-20T00:52:30;3.15;;;1.90;;
20725;SDS011;10524;48.132;8.518;2023-12-20T00:54:55;2.47;;;2.00;;
20725;SDS011;10524;48.132;8.518;2023-12-20T00:57:21;2.33;;;1.95;;
20725;SDS011;10524;48.132;8.518;2023-12-20T00:59:47;3.22;;;2.22;;
20725;SDS011;10524;48.132;8.518;2023-12-20T01:02:12;2.10;;;1.83;;
20725;SDS011;10524;48.132;8.518;2023-12-20T01:04:38;3.05;;;2.25;;
20725;SDS011;10524;48.132;8.518;2023-12-20T01:07:04;2.47;;;1.70;;
20725;SDS011;10524;48.132;8.518;2023-12-20T01:09:30;2.08;;;1.60;;
20725;SDS011;10524;48.132;8.518;2023-12-20T01:11:56;1.63;;;1.52;;
20725;SDS011;10524;48.132;8.518;2023-12-20T01:14:21;2.33;;;1.85;;
20725;SDS011;10524;48.132;8.518;2023-12-20T01:16:47;2.30;;;1.60;;
20725;SDS011;10524;48.132;8.518;2023-12-20T01:19:13;2.30;;;1.70;;
20725;SDS011;10524;48.132;8.518;2023-12-20T01:21:40;1.52;;;1.42;;
20725;SDS011;10524;48.132;8.518;2023-12-20T01:24:06;2.15;;;1.65;;
20725;SDS011;10524;48.132;8.518;2023-12-20T01:26:31;2.30;;;1.50;;
20725;SDS011;10524;48.132;8.518;2023-12-20T01:28:57;2.00;;;1.58;;
20725;SDS011;10524;48.132;8.518;2023-12-20T01:31:23;1.73;;;1.58;;
20725;SDS011;10524;48.132;8.518;2023-12-20T01:33:49;1.77;;;1.40;;
20725;SDS011;10524;48.132;8.518;2023-12-20T01:36:14;2.28;;;1.60;;
20725;SDS011;10524;48.132;8.518;2023-12-20T01:38:40;2.65;;;1.65;;
20725;SDS011;10524;48.132;8.518;2023-12-20T01:41:06;1.95;;;1.50;;
20725;SDS011;10524;48.132;8.518;2023-12-20T01:43:32;2.35;;;1.70;;
20725;SDS011;10524;48.132;8.518;2023-12-20T01:45:57;1.70;;;1.60;;
20725;SDS011;10524;48.132;8.518;2023-12-20T01:48:24;1.88;;;1.60;;
20725;SDS011;10524;48.132;8.518;2023-12-20T01:50:51;2.10;;;1.52;;
20725;SDS011;10524;48.132;8.518;2023-12-20T01:53:17;2.33;;;1.60;;
20725;SDS011;10524;48.132;8.518;2023-12-20T01:55:46;2.00;;;1.45;;
20725;SDS011;10524;48.132;8.518;2023-12-20T01:58:13;1.52;;;1.30;;
20725;SDS011;10524;48.132;8.518;2023-12-20T02:00:40;1.50;;;1.30;;
20725;SDS011;10524;48.132;8.518;2023-12-20T02:03:06;2.00;;;1.40;;
20725;SDS011;10524;48.132;8.518;2023-12-20T02:05:33;1.55;;;1.30;;
20725;SDS011;10524;48.132;8.518;2023-12-20T02:08:00;1.30;;;1.00;;
20725;SDS011;10524;48.132;8.518;2023-12-20T02:10:26;0.93;;;0.82;;
20725;SDS011;10524;48.132;8.518;2023-12-20T02:12:53;0.70;;;0.63;;
20725;SDS011;10524;48.132;8.518;2023-12-20T02:15:18;1.55;;;0.60;;
20725;SDS011;10524;48.132;8.518;2023-12-20T02:17:45;1.83;;;0.65;;
20725;SDS011;10524;48.132;8.518;2023-12-20T02:20:11;0.93;;;0.80;;
20725;SDS011;10524;48.132;8.518;2023-12-20T02:22:37;0.70;;;0.60;;
20725;SDS011;10524;48.132;8.518;2023-12-20T02:25:03;0.43;;;0.43;;
20725;SDS011;10524;48.132;8.518;2023-12-20T02:27:29;0.43;;;0.40;;
20725;SDS011;10524;48.132;8.518;2023-12-20T02:29:55;1.40;;;0.50;;
20725;SDS011;10524;48.132;8.518;2023-12-20T02:32:21;1.05;;;0.47;;
20725;SDS011;10524;48.132;8.518;2023-12-20T02:34:48;0.70;;;0.45;;
20725;SDS011;10524;48.132;8.518;2023-12-20T02:37:14;0.68;;;0.50;;
20725;SDS011;10524;48.132;8.518;2023-12-20T02:39:40;0.90;;;0.50;;
20725;SDS011;10524;48.132;8.518;2023-12-20T02:42:05;0.73;;;0.30;;
20725;SDS011;10524;48.132;8.518;2023-12-20T02:44:31;1.05;;;0.38;;
20725;SDS011;10524;48.132;8.518;2023-12-20T02:46:57;0.30;;;0.30;;
20725;SDS011;10524;48.132;8.518;2023-12-20T02:49:22;0.40;;;0.30;;
20725;SDS011;10524;48.132;8.518;2023-12-20T02:51:48;0.52;;;0.30;;
20725;SDS011;10524;48.132;8.518;2023-12-20T02:54:14;1.65;;;0.40;;
20725;SDS011;10524;48.132;8.518;2023-12-20T02:56:40;0.30;;;0.30;;
20725;SDS011;10524;48.132;8.518;2023-12-20T02:59:05;0.43;;;0.30;;
20725;SDS011;10524;48.132;8.518;2023-12-20T03:01:33;1.88;;;0.30;;
20725;SDS011;10524;48.132;8.518;2023-12-20T03:03:59;0.35;;;0.35;;
20725;SDS011;10524;48.132;8.518;2023-12-20T03:06:25;0.30;;;0.30;;
20725;SDS011;10524;48.132;8.518;2023-12-20T03:08:51;0.30;;;0.30;;
20725;SDS011;10524;48.132;8.518;2023-12-20T03:11:17;0.50;;;0.47;;
20725;SDS011;10524;48.132;8.518;2023-12-20T03:13:42;0.30;;;0.30;;
20725;SDS011;10524;48.132;8.518;2023-12-20T03:16:11;0.73;;;0.30;;
20725;SDS011;10524;48.132;8.518;2023-12-20T03:18:38;0.40;;;0.30;;
20725;SDS011;10524;48.132;8.518;2023-12-20T03:21:04;0.20;;;0.20;;
20725;SDS011;10524;48.132;8.518;2023-12-20T03:23:30;0.43;;;0.20;;
20725;SDS011;10524;48.132;8.518;2023-12-20T03:26:01;0.30;;;0.30;;
20725;SDS011;10524;48.132;8.518;2023-12-20T03:28:27;0.63;;;0.50;;
20725;SDS011;10524;48.132;8.518;2023-12-20T03:30:53;0.30;;;0.30;;
20725;SDS011;10524;48.132;8.518;2023-12-20T03:33:19;0.68;;;0.30;;
20725;SDS011;10524;48.132;8.518;2023-12-20T03:35:45;0.32;;;0.32;;
20725;SDS011;10524;48.132;8.518;2023-12-20T03:38:11;0.40;;;0.30;;
20725;SDS011;10524;48.132;8.518;2023-12-20T03:40:36;0.57;;;0.30;;
20725;SDS011;10524;48.132;8.518;2023-12-20T03:43:02;0.20;;;0.20;;
20725;SDS011;10524;48.132;8.518;2023-12-20T03:45:28;0.40;;;0.40;;
20725;SDS011;10524;48.132;8.518;2023-12-20T03:47:54;0.90;;;0.38;;
20725;SDS011;10524;48.132;8.518;2023-12-20T03:50:24;0.38;;;0.38;;
20725;SDS011;10524;48.132;8.518;2023-12-20T03:52:50;0.45;;;0.30;;
20725;SDS011;10524;48.132;8.518;2023-12-20T03:55:16;0.30;;;0.30;;
20725;SDS011;10524;48.132;8.518;2023-12-20T03:57:42;0.28;;;0.28;;
20725;SDS011;10524;48.132;8.518;2023-12-20T04:00:08;0.30;;;0.30;;
20725;SDS011;10524;48.132;8.518;2023-12-20T04:02:40;0.30;;;0.30;;
20725;SDS011;10524;48.132;8.518;2023-12-20T04:05:07;0.28;;;0.28;;
20725;SDS011;10524;48.132;8.518;2023-12-20T04:07:33;0.28;;;0.28;;
20725;SDS011;10524;48.132;8.518;2023-12-20T04:10:00;0.47;;;0.40;;
20725;SDS011;10524;48.132;8.518;2023-12-20T04:12:29;0.30;;;0.30;;
20725;SDS011;10524;48.132;8.518;2023-12-20T04:14:56;0.30;;;0.22;;
20725;SDS011;10524;48.132;8.518;2023-12-20T04:17:22;0.30;;;0.30;;
20725;SDS011;10524;48.132;8.518;2023-12-20T04:19:48;0.28;;;0.20;;
20725;SDS011;10524;48.132;8.518;2023-12-20T04:22:14;0.20;;;0.20;;
20725;SDS011;10524;48.132;8.518;2023-12-20T04:24:40;1.05;;;0.40;;
20725;SDS011;10524;48.132;8.518;2023-12-20T04:27:09;0.40;;;0.32;;
20725;SDS011;10524;48.132;8.518;2023-12-20T04:29:35;0.32;;;0.30;;
20725;SDS011;10524;48.132;8.518;2023-12-20T04:32:00;0.40;;;0.40;;
20725;SDS011;10524;48.132;8.518;2023-12-20T04:34:26;0.30;;;0.30;;
20725;SDS011;10524;48.132;8.518;2023-12-20T04:36:52;0.30;;;0.30;;
20725;SDS011;10524;48.132;8.518;2023-12-20T04:39:18;0.40;;;0.40;;
20725;SDS011;10524;48.132;8.518;2023-12-20T04:41:44;0.40;;;0.40;;
20725;SDS011;10524;48.132;8.518;2023-12-20T04:44:10;0.40;;;0.40;;
20725;SDS011;10524;48.132;8.518;2023-12-20T04:46:36;0.40;;;0.40;;
20725;SDS011;10524;48.132;8.518;2023-12-20T04:49:01;0.50;;;0.50;;
20725;SDS011;10524;48.132;8.518;2023-12-20T04:51:27;0.30;;;0.30;;
20725;SDS011;10524;48.132;8.518;2023-12-20T04:53:53;0.60;;;0.40;;
20725;SDS011;10524;48.132;8.518;2023-12-20T04:56:18;0.30;;;0.30;;
20725;SDS011;10524;48.132;8.518;2023-12-20T04:58:44;0.30;;;0.30;;
20725;SDS011;10524;48.132;8.518;2023-12-20T05:01:10;0.30;;;0.30;;
20725;SDS011;10524;48.132;8.518;2023-12-20T05:03:37;0.20;;;0.20;;
20725;SDS011;10524;48.132;8.518;2023-12-20T05:06:02;0.30;;;0.30;;
20725;SDS011;10524;48.132;8.518;2023-12-20T05:08:28;0.75;;;0.30;;
20725;SDS011;10524;48.132;8.518;2023-12-20T05:10:54;0.20;;;0.20;;
20725;SDS011;10524;48.132;8.518;2023-12-20T05:13:20;0.30;;;0.30;;
20725;SDS011;10524;48.132;8.518;2023-12-20T05:15:46;0.35;;;0.30;;
20725;SDS011;10524;48.132;8.518;2023-12-20T05:18:12;0.43;;;0.32;;
20725;SDS011;10524;48.132;8.518;2023-12-20T05:20:39;0.43;;;0.43;;
20725;SDS011;10524;48.132;8.518;2023-12-20T05:23:04;0.30;;;0.30;;
20725;SDS011;10524;48.132;8.518;2023-12-20T05:25:31;0.25;;;0.20;;
20725;SDS011;10524;48.132;8.518;2023-12-20T05:27:57;0.40;;;0.20;;
20725;SDS011;10524;48.132;8.518;2023-12-20T05:30:22;0.30;;;0.30;;
20725;SDS011;10524;48.132;8.518;2023-12-20T05:32:48;0.30;;;0.30;;
20725;SDS011;10524;48.132;8.518;2023-12-20T05:35:14;3.53;;;1.50;;
20725;SDS011;10524;48.132;8.518;2023-12-20T05:37:40;0.20;;;0.20;;
20725;SDS011;10524;48.132;8.518;2023-12-20T05:40:07;1.25;;;0.25;;
20725;SDS011;10524;48.132;8.518;2023-12-20T05:42:36;1.23;;;0.40;;
20725;SDS011;10524;48.132;8.518;2023-12-20T05:45:03;0.38;;;0.30;;
20725;SDS011;10524;48.132;8.518;2023-12-20T05:47:29;0.20;;;0.20;;
20725;SDS011;10524;48.132;8.518;2023-12-20T05:49:55;1.50;;;0.40;;
20725;SDS011;10524;48.132;8.518;2023-12-20T05:52:20;0.98;;;0.40;;
20725;SDS011;10524;48.132;8.518;2023-12-20T05:54:47;0.40;;;0.40;;
20725;SDS011;10524;48.132;8.518;2023-12-20T05:57:13;0.60;;;0.30;;
20725;SDS011;10524;48.132;8.518;2023-12-20T05:59:38;0.30;;;0.30;;
20725;SDS011;10524;48.132;8.518;2023-12-20T06:02:04;0.40;;;0.40;;
20725;SDS011;10524;48.132;8.518;2023-12-20T06:04:30;0.73;;;0.50;;
20725;SDS011;10524;48.132;8.518;2023-12-20T06:06:56;0.60;;;0.47;;
20725;SDS011;10524;48.132;8.518;2023-12-20T06:09:22;1.85;;;0.52;;
20725;SDS011;10524;48.132;8.518;2023-12-20T06:11:48;0.57;;;0.57;;
20725;SDS011;10524;48.132;8.518;2023-12-20T06:14:14;0.65;;;0.63;;
20725;SDS011;10524;48.132;8.518;2023-12-20T06:16:40;0.95;;;0.80;;
20725;SDS011;10524;48.132;8.518;2023-12-20T06:19:06;1.30;;;0.95;;
20725;SDS011;10524;48.132;8.518;2023-12-20T06:21:32;1.10;;;0.70;;
20725;SDS011;10524;48.132;8.518;2023-12-20T06:23:58;1.27;;;0.93;;
20725;SDS011;10524;48.132;8.518;2023-12-20T06:26:25;1.67;;;1.17;;
20725;SDS011;10524;48.132;8.518;2023-12-20T06:28:50;1.58;;;1.10;;
20725;SDS011;10524;48.132;8.518;2023-12-20T06:31:16;3.00;;;1.40;;
20725;SDS011;10524;48.132;8.518;2023-12-20T06:33:42;1.58;;;1.38;;
20725;SDS011;10524;48.132;8.518;2023-12-20T06:36:11;1.60;;;1.25;;
20725;SDS011;10524;48.132;8.518;2023-12-20T06:38:38;3.38;;;1.13;;
20725;SDS011;10524;48.132;8.518;2023-12-20T06:41:04;1.30;;;1.10;;
20725;SDS011;10524;48.132;8.518;2023-12-20T06:43:31;1.30;;;1.00;;
20725;SDS011;10524;48.132;8.518;2023-12-20T06:45:57;1.45;;;1.10;;
20725;SDS011;10524;48.132;8.518;2023-12-20T06:48:25;1.70;;;1.25;;
20725;SDS011;10524;48.132;8.518;2023-12-20T06:50:51;2.00;;;0.93;;
20725;SDS011;10524;48.132;8.518;2023-12-20T06:53:16;2.38;;;1.55;;
20725;SDS011;10524;48.132;8.518;2023-12-20T06:55:42;2.78;;;1.10;;
20725;SDS011;10524;48.132;8.518;2023-12-20T06:58:08;1.38;;;1.10;;
20725;SDS011;10524;48.132;8.518;2023-12-20T07:00:34;1.50;;;1.40;;
20725;SDS011;10524;48.132;8.518;2023-12-20T07:02:59;1.98;;;1.60;;
20725;SDS011;10524;48.132;8.518;2023-12-20T07:05:25;1.63;;;1.20;;
20725;SDS011;10524;48.132;8.518;2023-12-20T07:07:51;3.75;;;1.17;;
20725;SDS011;10524;48.132;8.518;2023-12-20T07:10:17;1.42;;;1.20;;
20725;SDS011;10524;48.132;8.518;2023-12-20T07:12:43;1.63;;;1.20;;
20725;SDS011;10524;48.132;8.518;2023-12-20T07:15:09;2.45;;;1.55;;
20725;SDS011;10524;48.132;8.518;2023-12-20T07:17:35;2.45;;;1.50;;
20725;SDS011;10524;48.132;8.518;2023-12-20T07:20:01;3.40;;;1.50;;
20725;SDS011;10524;48.132;8.518;2023-12-20T07:22:32;1.70;;;1.15;;
20725;SDS011;10524;48.132;8.518;2023-12-20T07:24:58;2.30;;;1.10;;
20725;SDS011;10524;48.132;8.518;2023-12-20T07:27:25;2.17;;;1.30;;
20725;SDS011;10524;48.132;8.518;2023-12-20T07:29:51;1.27;;;1.05;;
20725;SDS011;10524;48.132;8.518;2023-12-20T07:32:17;1.00;;;0.90;;
20725;SDS011;10524;48.132;8.518;2023-12-20T07:34:43;1.20;;;1.10;;
20725;SDS011;10524;48.132;8.518;2023-12-20T07:37:09;1.40;;;1.15;;
20725;SDS011;10524;48.132;8.518;2023-12-20T07:39:37;3.03;;;1.20;;
20725;SDS011;10524;48.132;8.518;2023-12-20T07:42:05;3.90;;;1.10;;
20725;SDS011;10524;48.132;8.518;2023-12-20T07:44:31;3.63;;;1.17;;
20725;SDS011;10524;48.132;8.518;2023-12-20T07:46:56;1.42;;;1.10;;
20725;SDS011;10524;48.132;8.518;2023-12-20T07:49:23;1.30;;;1.00;;
20725;SDS011;10524;48.132;8.518;2023-12-20T07:51:49;2.05;;;1.02;;
20725;SDS011;10524;48.132;8.518;2023-12-20T07:54:15;1.17;;;1.00;;
20725;SDS011;10524;48.132;8.518;2023-12-20T07:56:41;1.50;;;1.20;;
20725;SDS011;10524;48.132;8.518;2023-12-20T07:59:07;1.20;;;1.10;;
20725;SDS011;10524;48.132;8.518;2023-12-20T08:01:32;2.35;;;1.15;;
20725;SDS011;10524;48.132;8.518;2023-12-20T08:03:58;2.45;;;1.10;;
20725;SDS011;10524;48.132;8.518;2023-12-20T08:06:24;1.20;;;1.02;;
20725;SDS011;10524;48.132;8.518;2023-12-20T08:08:50;1.30;;;1.00;;
20725;SDS011;10524;48.132;8.518;2023-12-20T08:11:15;1.50;;;0.90;;
20725;SDS011;10524;48.132;8.518;2023-12-20T08:13:41;1.48;;;1.30;;
20725;SDS011;10524;48.132;8.518;2023-12-20T08:16:07;2.40;;;1.42;;
20725;SDS011;10524;48.132;8.518;2023-12-20T08:18:33;1.98;;;1.60;;
20725;SDS011;10524;48.132;8.518;2023-12-20T08:20:59;2.38;;;1.88;;
20725;SDS011;10524;48.132;8.518;2023-12-20T08:23:25;3.03;;;2.30;;
20725;SDS011;10524;48.132;8.518;2023-12-20T08:25:51;3.85;;;2.70;;
20725;SDS011;10524;48.132;8.518;2023-12-20T08:28:17;2.40;;;2.20;;
20725;SDS011;10524;48.132;8.518;2023-12-20T08:30:43;2.53;;;2.00;;
20725;SDS011;10524;48.132;8.518;2023-12-20T08:33:08;3.30;;;2.22;;
20725;SDS011;10524;48.132;8.518;2023-12-20T08:35:38;5.05;;;3.72;;
20725;SDS011;10524;48.132;8.518;2023-12-20T08:38:05;3.90;;;2.72;;
20725;SDS011;10524;48.132;8.518;2023-12-20T08:40:31;6.45;;;3.70;;
20725;SDS011;10524;48.132;8.518;2023-12-20T08:42:57;3.42;;;2.53;;
20725;SDS011;10524;48.132;8.518;2023-12-20T08:45:22;3.35;;;1.65;;
20725;SDS011;10524;48.132;8.518;2023-12-20T08:47:48;4.00;;;2.80;;
20725;SDS011;10524;48.132;8.518;2023-12-20T08:50:14;5.13;;;4.18;;
20725;SDS011;10524;48.132;8.518;2023-12-20T08:52:40;4.88;;;3.90;;
20725;SDS011;10524;48.132;8.518;2023-12-20T08:55:07;4.50;;;3.95;;
20725;SDS011;10524;48.132;8.518;2023-12-20T08:57:33;4.10;;;3.45;;
20725;SDS011;10524;48.132;8.518;2023-12-20T08:59:59;5.28;;;3.95;;
20725;SDS011;10524;48.132;8.518;2023-12-20T09:02:24;5.45;;;4.40;;
20725;SDS011;10524;48.132;8.518;2023-12-20T09:04:50;4.45;;;3.65;;
20725;SDS011;10524;48.132;8.518;2023-12-20T09:07:22;1.77;;;1.33;;
20725;SDS011;10524;48.132;8.518;2023-12-20T09:09:49;1.55;;;1.40;;
20725;SDS011;10524;48.132;8.518;2023-12-20T09:12:15;1.70;;;1.60;;
20725;SDS011;10524;48.132;8.518;2023-12-20T09:14:41;1.50;;;1.40;;
20725;SDS011;10524;48.132;8.518;2023-12-20T09:17:06;2.30;;;1.55;;
20725;SDS011;10524;48.132;8.518;2023-12-20T09:19:34;1.63;;;1.40;;
20725;SDS011;10524;48.132;8.518;2023-12-20T09:21:59;1.20;;;1.10;;
20725;SDS011;10524;48.132;8.518;2023-12-20T09:24:26;1.00;;;0.90;;
20725;SDS011;10524;48.132;8.518;2023-12-20T09:26:51;1.00;;;0.80;;
20725;SDS011;10524;48.132;8.518;2023-12-20T09:29:17;0.70;;;0.70;;
20725;SDS011;10524;48.132;8.518;2023-12-20T09:31:44;0.73;;;0.73;;
20725;SDS011;10524;48.132;8.518;2023-12-20T09:34:11;0.88;;;0.70;;
20725;SDS011;10524;48.132;8.518;2023-12-20T09:36:38;0.68;;;0.60;;
20725;SDS011;10524;48.132;8.518;2023-12-20T09:39:07;0.70;;;0.60;;
20725;SDS011;10524;48.132;8.518;2023-12-20T09:41:35;0.68;;;0.63;;
20725;SDS011;10524;48.132;8.518;2023-12-20T09:44:05;0.70;;;0.70;;
20725;SDS011;10524;48.132;8.518;2023-12-20T09:46:33;0.80;;;0.70;;
20725;SDS011;10524;48.132;8.518;2023-12-20T09:49:02;1.00;;;0.90;;
20725;SDS011;10524;48.132;8.518;2023-12-20T09:51:28;1.80;;;0.80;;
20725;SDS011;10524;48.132;8.518;2023-12-20T09:53:56;0.80;;;0.80;;
20725;SDS011;10524;48.132;8.518;2023-12-20T09:56:23;0.88;;;0.88;;
20725;SDS011;10524;48.132;8.518;2023-12-20T09:58:50;1.52;;;1.10;;
20725;SDS011;10524;48.132;8.518;2023-12-20T10:01:16;1.30;;;1.13;;
20725;SDS011;10524;48.132;8.518;2023-12-20T10:03:43;2.35;;;1.27;;
20725;SDS011;10524;48.132;8.518;2023-12-20T10:06:09;2.45;;;1.42;;
20725;SDS011;10524;48.132;8.518;2023-12-20T10:08:35;1.45;;;1.15;;
20725;SDS011;10524;48.132;8.518;2023-12-20T10:11:01;1.17;;;1.02;;
20725;SDS011;10524;48.132;8.518;2023-12-20T10:13:29;2.35;;;1.42;;
20725;SDS011;10524;48.132;8.518;2023-12-20T10:15:55;2.03;;;1.40;;
20725;SDS011;10524;48.132;8.518;2023-12-20T10:18:21;1.60;;;1.50;;
20725;SDS011;10524;48.132;8.518;2023-12-20T10:20:47;1.48;;;1.38;;
20725;SDS011;10524;48.132;8.518;2023-12-20T10:23:13;1.92;;;1.73;;
20725;SDS011;10524;48.132;8.518;2023-12-20T10:25:41;1.83;;;1.40;;
20725;SDS011;10524;48.132;8.518;2023-12-20T10:28:11;1.95;;;1.30;;
20725;SDS011;10524;48.132;8.518;2023-12-20T10:30:38;2.35;;;1.60;;
20725;SDS011;10524;48.132;8.518;2023-12-20T10:33:07;1.58;;;1.48;;
20725;SDS011;10524;48.132;8.518;2023-12-20T10:35:34;6.72;;;5.97;;
20725;SDS011;10524;48.132;8.518;2023-12-20T10:38:01;1.60;;;1.50;;
20725;SDS011;10524;48.132;8.518;2023-12-20T10:40:29;1.95;;;1.70;;
20725;SDS011;10524;48.132;8.518;2023-12-20T10:42:56;2.72;;;1.52;;
20725;SDS011;10524;48.132;8.518;2023-12-20T10:45:23;2.47;;;1.20;;
20725;SDS011;10524;48.132;8.518;2023-12-20T10:47:49;1.65;;;1.30;;
20725;SDS011;10524;48.132;8.518;2023-12-20T10:50:16;2.03;;;1.40;;
20725;SDS011;10524;48.132;8.518;2023-12-20T10:52:43;3.53;;;1.50;;
20725;SDS011;10524;48.132;8.518;2023-12-20T10:55:10;1.40;;;1.20;;
20725;SDS011;10524;48.132;8.518;2023-12-20T10:57:36;2.05;;;1.42;;
20725;SDS011;10524;48.132;8.518;2023-12-20T11:00:02;2.05;;;1.17;;
20725;SDS011;10524;48.132;8.518;2023-12-20T11:02:33;1.55;;;1.25;;
20725;SDS011;10524;48.132;8.518;2023-12-20T11:07:43;1.45;;;1.20;;
20725;SDS011;10524;48.132;8.518;2023-12-20T11:12:54;2.20;;;1.57;;
20725;SDS011;10524;48.132;8.518;2023-12-20T11:15:42;1.85;;;1.60;;
20725;SDS011;10524;48.132;8.518;2023-12-20T11:18:08;2.95;;;2.03;;
20725;SDS011;10524;48.132;8.518;2023-12-20T11:20:38;1.73;;;1.45;;
20725;SDS011;10524;48.132;8.518;2023-12-20T11:23:05;3.63;;;2.00;;
20725;SDS011;10524;48.132;8.518;2023-12-20T11:26:14;3.03;;;2.35;;
20725;SDS011;10524;48.132;8.518;2023-12-20T11:28:24;2.78;;;2.00;;
20725;SDS011;10524;48.132;8.518;2023-12-20T11:30:51;3.25;;;1.95;;
20725;SDS011;10524;48.132;8.518;2023-12-20T11:33:25;3.65;;;1.90;;
20725;SDS011;10524;48.132;8.518;2023-12-20T11:35:52;6.57;;;4.03;;
20725;SDS011;10524;48.132;8.518;2023-12-20T11:38:21;6.70;;;3.75;;
20725;SDS011;10524;48.132;8.518;2023-12-20T11:40:50;2.90;;;2.05;;
20725;SDS011;10524;48.132;8.518;2023-12-20T11:43:36;3.40;;;2.10;;
20725;SDS011;10524;48.132;8.518;2023-12-20T11:46:07;5.00;;;3.15;;
20725;SDS011;10524;48.132;8.518;2023-12-20T11:48:37;3.65;;;2.47;;
20725;SDS011;10524;48.132;8.518;2023-12-20T11:51:11;4.85;;;2.67;;
20725;SDS011;10524;48.132;8.518;2023-12-20T11:56:04;4.88;;;3.22;;
20725;SDS011;10524;48.132;8.518;2023-12-20T11:58:31;4.65;;;2.88;;
20725;SDS011;10524;48.132;8.518;2023-12-20T12:00:58;13.30;;;9.90;;
20725;SDS011;10524;48.132;8.518;2023-12-20T12:03:24;6.00;;;4.32;;
20725;SDS011;10524;48.132;8.518;2023-12-20T12:05:50;4.50;;;3.22;;
20725;SDS011;10524;48.132;8.518;2023-12-20T12:08:16;8.52;;;5.43;;
20725;SDS011;10524;48.132;8.518;2023-12-20T12:10:43;7.38;;;5.03;;
20725;SDS011;10524;48.132;8.518;2023-12-20T12:13:09;5.43;;;4.63;;
20725;SDS011;10524;48.132;8.518;2023-12-20T12:15:36;6.90;;;3.78;;
20725;SDS011;10524;48.132;8.518;2023-12-20T12:18:02;3.67;;;1.55;;
20725;SDS011;10524;48.132;8.518;2023-12-20T12:20:29;2.28;;;1.90;;
20725;SDS011;10524;48.132;8.518;2023-12-20T12:23:01;4.47;;;1.90;;
20725;SDS011;10524;48.132;8.518;2023-12-20T12:25:29;3.95;;;1.55;;
20725;SDS011;10524;48.132;8.518;2023-12-20T12:27:56;4.07;;;1.77;;
20725;SDS011;10524;48.132;8.518;2023-12-20T12:30:23;5.78;;;1.80;;
20725;SDS011;10524;48.132;8.518;2023-12-20T12:32:49;3.92;;;1.48;;
20725;SDS011;10524;48.132;8.518;2023-12-20T12:35:16;4.53;;;1.83;;
20725;SDS011;10524;48.132;8.518;2023-12-20T12:37:42;4.05;;;1.60;;
20725;SDS011;10524;48.132;8.518;2023-12-20T12:40:12;6.03;;;2.08;;
20725;SDS011;10524;48.132;8.518;2023-12-20T12:42:39;4.07;;;2.10;;
20725;SDS011;10524;48.132;8.518;2023-12-20T12:45:06;4.57;;;1.90;;
20725;SDS011;10524;48.132;8.518;2023-12-20T12:47:32;3.10;;;1.60;;
20725;SDS011;10524;48.132;8.518;2023-12-20T12:49:59;3.90;;;1.40;;
20725;SDS011;10524;48.132;8.518;2023-12-20T12:52:25;6.35;;;2.35;;
20725;SDS011;10524;48.132;8.518;2023-12-20T12:54:52;4.72;;;1.95;;
20725;SDS011;10524;48.132;8.518;2023-12-20T12:57:18;3.83;;;1.70;;
20725;SDS011;10524;48.132;8.518;2023-12-20T12:59:44;5.05;;;1.63;;
20725;SDS011;10524;48.132;8.518;2023-12-20T13:02:13;5.70;;;1.73;;
20725;SDS011;10524;48.132;8.518;2023-12-20T13:04:39;3.85;;;1.85;;
20725;SDS011;10524;48.132;8.518;2023-12-20T13:07:08;5.38;;;1.63;;
20725;SDS011;10524;48.132;8.518;2023-12-20T13:09:38;5.07;;;1.85;;
20725;SDS011;10524;48.132;8.518;2023-12-20T13:12:07;2.80;;;1.42;;
20725;SDS011;10524;48.132;8.518;2023-12-20T13:14:33;3.92;;;1.70;;
20725;SDS011;10524;48.132;8.518;2023-12-20T13:17:00;2.67;;;1.40;;
20725;SDS011;10524;48.132;8.518;2023-12-20T13:19:26;5.40;;;1.58;;
20725;SDS011;10524;48.132;8.518;2023-12-20T13:21:53;3.90;;;1.80;;
20725;SDS011;10524;48.132;8.518;2023-12-20T13:24:18;4.20;;;1.50;;
20725;SDS011;10524;48.132;8.518;2023-12-20T13:26:44;4.32;;;1.67;;
20725;SDS011;10524;48.132;8.518;2023-12-20T13:29:10;9.27;;;2.30;;
20725;SDS011;10524;48.132;8.518;2023-12-20T13:31:37;4.70;;;1.73;;
20725;SDS011;10524;48.132;8.518;2023-12-20T13:34:03;7.60;;;3.15;;
20725;SDS011;10524;48.132;8.518;2023-12-20T13:36:29;5.70;;;1.85;;
20725;SDS011;10524;48.132;8.518;2023-12-20T13:38:55;4.95;;;2.25;;
20725;SDS011;10524;48.132;8.518;2023-12-20T13:41:21;5.00;;;2.25;;
20725;SDS011;10524;48.132;8.518;2023-12-20T13:43:46;7.55;;;2.60;;
20725;SDS011;10524;48.132;8.518;2023-12-20T13:46:12;6.38;;;2.10;;
20725;SDS011;10524;48.132;8.518;2023-12-20T13:48:39;6.75;;;2.53;;
20725;SDS011;10524;48.132;8.518;2023-12-20T13:51:05;5.22;;;2.65;;
20725;SDS011;10524;48.132;8.518;2023-12-20T13:53:31;8.13;;;2.08;;
20725;SDS011;10524;48.132;8.518;2023-12-20T13:55:57;5.00;;;1.80;;
20725;SDS011;10524;48.132;8.518;2023-12-20T13:58:23;11.50;;;1.95;;
20725;SDS011;10524;48.132;8.518;2023-12-20T14:00:48;4.80;;;1.80;;
20725;SDS011;10524;48.132;8.518;2023-12-20T14:03:14;5.10;;;1.73;;
20725;SDS011;10524;48.132;8.518;2023-12-20T14:05:40;5.60;;;1.85;;
20725;SDS011;10524;48.132;8.518;2023-12-20T14:08:06;8.73;;;1.90;;
20725;SDS011;10524;48.132;8.518;2023-12-20T14:10:32;4.78;;;1.30;;
20725;SDS011;10524;48.132;8.518;2023-12-20T14:12:58;5.10;;;1.55;;
20725;SDS011;10524;48.132;8.518;2023-12-20T14:15:24;6.78;;;1.73;;
20725;SDS011;10524;48.132;8.518;2023-12-20T14:17:50;4.82;;;1.50;;
20725;SDS011;10524;48.132;8.518;2023-12-20T14:20:16;3.50;;;1.60;;
20725;SDS011;10524;48.132;8.518;2023-12-20T14:22:43;5.35;;;1.70;;
20725;SDS011;10524;48.132;8.518;2023-12-20T14:25:12;3.67;;;1.48;;
20725;SDS011;10524;48.132;8.518;2023-12-20T14:27:39;4.57;;;1.35;;
20725;SDS011;10524;48.132;8.518;2023-12-20T14:30:06;4.28;;;1.35;;
20725;SDS011;10524;48.132;8.518;2023-12-20T14:32:34;6.15;;;1.95;;
20725;SDS011;10524;48.132;8.518;2023-12-20T14:35:02;3.97;;;1.42;;
20725;SDS011;10524;48.132;8.518;2023-12-20T14:37:29;4.03;;;1.33;;
20725;SDS011;10524;48.132;8.518;2023-12-20T14:39:55;4.65;;;1.45;;
20725;SDS011;10524;48.132;8.518;2023-12-20T14:42:20;8.55;;;2.63;;
20725;SDS011;10524;48.132;8.518;2023-12-20T14:44:47;7.28;;;2.60;;
20725;SDS011;10524;48.132;8.518;2023-12-20T14:47:13;3.25;;;1.30;;
20725;SDS011;10524;48.132;8.518;2023-12-20T14:49:40;4.20;;;2.00;;
20725;SDS011;10524;48.132;8.518;2023-12-20T14:52:07;4.43;;;1.40;;